createdAt,value
2017-12-27T00:00:19.123Z,2.9
2017-12-27T00:02:18.886Z,3.9
2017-12-27T00:04:19.642Z,0.5
2017-12-27T00:06:19.089Z,0.3
2017-12-27T00:08:18.837Z,0.3
2017-12-27T00:10:19.076Z,0.5
2017-12-27T00:12:18.829Z,2.6
2017-12-27T00:14:19.548Z,1.2
2017-12-27T00:16:19.568Z,1.5
2017-12-27T00:18:19.367Z,0.4
2017-12-27T00:20:19.137Z,0.3
2017-12-27T00:22:18.880Z,0.7
2017-12-27T00:24:19.627Z,0.4
2017-12-27T00:26:19.185Z,6.2
2017-12-27T00:28:18.948Z,0.6
2017-12-27T00:30:18.805Z,0.5
2017-12-27T00:32:19.535Z,4.2
2017-12-27T00:34:19.266Z,0.3
2017-12-27T00:36:18.752Z,0.4
2017-12-27T00:38:19.506Z,0.3
2017-12-27T00:40:18.703Z,0.6
2017-12-27T00:42:19.441Z,2.1
2017-12-27T00:44:19.196Z,0.3
2017-12-27T00:46:19.369Z,1.9
2017-12-27T00:48:19.084Z,0.3
2017-12-27T00:50:18.842Z,0.3
2017-12-27T00:52:19.460Z,1.1
2017-12-27T00:54:19.172Z,0.9
2017-12-27T00:56:18.803Z,1
2017-12-27T00:58:19.511Z,1
2017-12-27T01:00:19.313Z,1.4
2017-12-27T01:02:19.030Z,0.4
2017-12-27T01:04:18.745Z,0.4
2017-12-27T01:06:18.760Z,0.3
2017-12-27T01:08:19.514Z,0.6
2017-12-27T01:10:18.728Z,1.1
2017-12-27T01:12:19.424Z,0.9
2017-12-27T01:14:19.151Z,0.3
2017-12-27T01:16:18.786Z,0.3
2017-12-27T01:18:19.582Z,0.4
2017-12-27T01:20:19.311Z,1
2017-12-27T01:22:19.032Z,1.4
2017-12-27T01:24:18.789Z,1.5
2017-12-27T01:26:19.147Z,0.5
2017-12-27T01:28:18.876Z,0.3
2017-12-27T01:30:19.722Z,0.4
2017-12-27T01:32:19.464Z,2.2
2017-12-27T01:34:19.196Z,1.1
2017-12-27T01:36:19.219Z,0.4
2017-12-27T01:38:18.944Z,1
2017-12-27T01:40:19.150Z,0.3
2017-12-27T01:42:18.910Z,0.4
2017-12-27T01:44:19.620Z,2.5
2017-12-27T01:46:19.137Z,0.3
2017-12-27T01:48:18.907Z,0.9
2017-12-27T01:50:19.647Z,4.3
2017-12-27T01:52:19.386Z,0.5
2017-12-27T01:54:19.150Z,0.5
2017-12-27T01:56:19.167Z,0.4
2017-12-27T01:58:18.889Z,0.6
2017-12-27T02:00:19.653Z,0.8
2017-12-27T02:02:19.423Z,1.6
2017-12-27T02:04:19.155Z,0.6
2017-12-27T02:06:19.163Z,0.4
2017-12-27T02:08:18.917Z,0.4
2017-12-27T02:10:19.121Z,0.4
2017-12-27T02:12:18.859Z,0.9
2017-12-27T02:14:19.583Z,0.4
2017-12-27T02:16:19.048Z,1.3
2017-12-27T02:18:18.896Z,0.8
2017-12-27T02:20:19.638Z,0.4
2017-12-27T02:22:19.341Z,0.4
2017-12-27T02:24:19.076Z,1.2
2017-12-27T02:26:19.553Z,0.7
2017-12-27T02:28:19.284Z,0.7
2017-12-27T02:30:19.015Z,0.4
2017-12-27T02:32:18.757Z,0.5
2017-12-27T02:34:19.521Z,0.4
2017-12-27T02:36:18.983Z,0.2
2017-12-27T02:38:18.727Z,1.4
2017-12-27T02:40:19.001Z,0.5
2017-12-27T02:42:18.760Z,1.8
2017-12-27T02:44:19.475Z,1.4
2017-12-27T02:46:19.463Z,4.6
2017-12-27T02:48:19.221Z,0.5
2017-12-27T02:50:18.947Z,0.8
2017-12-27T02:52:18.676Z,0.4
2017-12-27T02:54:19.418Z,1.9
2017-12-27T02:56:19.460Z,0.8
2017-12-27T02:58:19.179Z,1.5
2017-12-27T03:00:18.916Z,0.6
2017-12-27T03:02:18.667Z,2.7
2017-12-27T03:04:19.393Z,0.3
2017-12-27T03:06:19.461Z,1.7
2017-12-27T03:08:19.184Z,1.1
2017-12-27T03:10:19.438Z,0.7
2017-12-27T03:12:19.144Z,1.3
2017-12-27T03:14:18.845Z,0.4
2017-12-27T03:16:19.348Z,2.5
2017-12-27T03:18:19.131Z,0.9
2017-12-27T03:20:18.853Z,0.6
2017-12-27T03:22:19.604Z,0.5
2017-12-27T03:24:19.333Z,7.1
2017-12-27T03:26:18.867Z,0.6
2017-12-27T03:28:19.622Z,0.4
2017-12-27T03:30:19.340Z,7.2
2017-12-27T03:32:19.052Z,0.8
2017-12-27T03:34:18.802Z,0.7
2017-12-27T03:36:18.956Z,0.7
2017-12-27T03:38:18.707Z,0.5
2017-12-27T03:40:18.965Z,0.3
2017-12-27T03:42:18.662Z,4.1
2017-12-27T03:44:19.396Z,2.8
2017-12-27T03:46:19.055Z,1.6
2017-12-27T03:48:18.764Z,1
2017-12-27T03:50:19.477Z,0.6
2017-12-27T03:52:19.210Z,0.4
2017-12-27T03:54:18.979Z,2.2
2017-12-27T03:56:18.832Z,0.6
2017-12-27T03:58:19.563Z,1.1
2017-12-27T04:00:19.279Z,0.9
2017-12-27T04:02:19.011Z,0.7
2017-12-27T04:04:18.722Z,0.4
2017-12-27T04:06:19.005Z,0.9
2017-12-27T04:08:18.740Z,0.5
2017-12-27T04:10:18.986Z,0.5
2017-12-27T04:12:18.714Z,0.4
2017-12-27T04:14:19.450Z,0.4
2017-12-27T04:16:19.449Z,0.3
2017-12-27T04:18:19.267Z,0.8
2017-12-27T04:20:18.990Z,0.7
2017-12-27T04:22:18.689Z,0.7
2017-12-27T04:24:19.391Z,0.4
2017-12-27T04:26:18.946Z,3.8
2017-12-27T04:28:18.643Z,0.5
2017-12-27T04:30:19.420Z,0.6
2017-12-27T04:32:19.143Z,0.4
2017-12-27T04:34:18.840Z,4.4
2017-12-27T04:36:18.873Z,0.3
2017-12-27T04:38:19.595Z,0.3
2017-12-27T04:40:18.790Z,0.5
2017-12-27T04:42:19.558Z,1.1
2017-12-27T04:44:19.286Z,0.5
2017-12-27T04:46:19.255Z,0.3
2017-12-27T04:48:19.006Z,0.9
2017-12-27T04:50:18.725Z,5
2017-12-27T04:52:19.442Z,0.5
2017-12-27T04:54:19.194Z,2.1
2017-12-27T04:56:18.706Z,0.7
2017-12-27T04:58:19.428Z,1.2
2017-12-27T05:00:19.142Z,1.7
2017-12-27T05:02:18.844Z,1.3
2017-12-27T05:04:19.563Z,4.2
2017-12-27T05:06:19.130Z,1.3
2017-12-27T05:08:18.862Z,0.5
2017-12-27T05:10:19.086Z,0.7
2017-12-27T05:12:19.639Z,0.6
2017-12-27T05:14:19.377Z,1.3
2017-12-27T05:16:18.890Z,1.7
2017-12-27T05:18:18.708Z,0.3
2017-12-27T05:20:19.495Z,2.1
2017-12-27T05:22:19.243Z,1.1
2017-12-27T05:24:18.969Z,0.3
2017-12-27T05:26:19.053Z,5.8
2017-12-27T05:28:18.798Z,1.1
2017-12-27T05:30:19.499Z,1.5
2017-12-27T05:32:19.190Z,1.2
2017-12-27T05:34:18.930Z,0.2
2017-12-27T05:36:19.501Z,1.2
2017-12-27T05:38:19.220Z,1.4
2017-12-27T05:40:19.400Z,0.7
2017-12-27T05:42:19.127Z,0.4
2017-12-27T05:44:18.884Z,0.8
2017-12-27T05:46:19.039Z,0.8
2017-12-27T05:48:18.746Z,1.1
2017-12-27T05:50:19.484Z,2
2017-12-27T05:52:19.182Z,2.8
2017-12-27T05:54:18.889Z,0.5
2017-12-27T05:56:19.417Z,2.3
2017-12-27T05:58:19.120Z,0.6
2017-12-27T06:00:18.916Z,1.3
2017-12-27T06:02:19.660Z,1.5
2017-12-27T06:04:19.366Z,1.2
2017-12-27T06:06:19.627Z,0.7
2017-12-27T06:08:19.354Z,0.5
2017-12-27T06:10:19.553Z,1.2
2017-12-27T06:12:19.271Z,0.5
2017-12-27T06:14:19.018Z,0.7
2017-12-27T06:16:19.406Z,0.7
2017-12-27T06:18:19.222Z,1.1
2017-12-27T06:20:18.978Z,3.8
2017-12-27T06:22:18.693Z,2.4
2017-12-27T06:24:19.414Z,0.4
2017-12-27T06:26:18.998Z,1.9
2017-12-27T06:28:18.694Z,1.7
2017-12-27T06:30:19.408Z,2.3
2017-12-27T06:32:19.185Z,0.5
2017-12-27T06:34:18.921Z,2.7
2017-12-27T06:36:19.314Z,0.4
2017-12-27T06:38:19.063Z,0.5
2017-12-27T06:40:19.271Z,1.8
2017-12-27T06:42:19.018Z,0.6
2017-12-27T06:44:18.746Z,2.2
2017-12-27T06:46:19.564Z,4
2017-12-27T06:48:19.317Z,0.9
2017-12-27T06:50:19.204Z,1.9
2017-12-27T06:52:19.569Z,3
2017-12-27T06:54:19.311Z,0.3
2017-12-27T06:56:19.341Z,0.6
2017-12-27T06:58:19.047Z,0.4
2017-12-27T07:00:18.775Z,0.6
2017-12-27T07:02:19.500Z,0.6
2017-12-27T07:04:19.256Z,0.5
2017-12-27T07:06:18.806Z,0.5
2017-12-27T07:08:19.549Z,0.7
2017-12-27T07:10:18.781Z,2.3
2017-12-27T07:12:19.521Z,0.7
2017-12-27T07:14:19.245Z,0.5
2017-12-27T07:16:18.843Z,3.9
2017-12-27T07:18:19.641Z,1.2
2017-12-27T07:20:19.404Z,0.5
2017-12-27T07:22:19.147Z,1.7
2017-12-27T07:24:18.841Z,0.7
2017-12-27T07:26:19.360Z,1.6
2017-12-27T07:28:19.096Z,1.2
2017-12-27T07:30:18.802Z,4.7
2017-12-27T07:32:19.551Z,1.5
2017-12-27T07:34:19.271Z,0.8
2017-12-27T07:36:18.764Z,4.4
2017-12-27T07:38:19.492Z,0.7
2017-12-27T07:40:18.632Z,0.7
2017-12-27T07:42:19.365Z,2.2
2017-12-27T07:44:19.099Z,1.7
2017-12-27T07:46:19.620Z,9.3
2017-12-27T07:48:19.353Z,1.7
2017-12-27T07:50:19.100Z,5.2
2017-12-27T07:52:18.872Z,3.2
2017-12-27T07:54:19.598Z,2.4
2017-12-27T07:56:19.591Z,2.5
2017-12-27T07:58:19.294Z,1.3
2017-12-27T08:00:19.020Z,1.3
2017-12-27T08:02:18.784Z,0.9
2017-12-27T08:04:19.526Z,1.6
2017-12-27T08:06:19.059Z,1.2
2017-12-27T08:08:18.789Z,2.1
2017-12-27T08:10:18.981Z,1.1
2017-12-27T08:12:18.676Z,1.9
2017-12-27T08:14:19.432Z,4.9
2017-12-27T08:16:19.513Z,3.3
2017-12-27T08:18:19.291Z,3
2017-12-27T08:20:19.022Z,1.6
2017-12-27T08:22:18.760Z,1.9
2017-12-27T08:24:19.491Z,4.7
2017-12-27T08:26:19.181Z,2
2017-12-27T08:28:18.904Z,2.3
2017-12-27T08:30:19.660Z,1.8
2017-12-27T08:32:19.364Z,2.3
2017-12-27T08:34:19.078Z,4.4
2017-12-27T08:36:19.146Z,2.4
2017-12-27T08:38:18.865Z,2.4
2017-12-27T08:40:19.071Z,7.6
2017-12-27T08:42:18.796Z,2.9
2017-12-27T08:44:19.508Z,2
2017-12-27T08:46:19.647Z,2.3
2017-12-27T08:48:19.394Z,1.9
2017-12-27T08:50:19.108Z,4.4
2017-12-27T08:52:18.813Z,3.3
2017-12-27T08:54:19.535Z,5.2
2017-12-27T08:56:18.775Z,4.3
2017-12-27T08:58:19.510Z,3.5
2017-12-27T09:00:19.230Z,2.3
2017-12-27T09:02:19.021Z,4
2017-12-27T09:04:18.760Z,13.6
2017-12-27T09:06:19.062Z,3.5
2017-12-27T09:08:18.782Z,3.7
2017-12-27T09:10:19.129Z,5.9
2017-12-27T09:12:18.875Z,2.9
2017-12-27T09:14:19.597Z,2.8
2017-12-27T09:16:19.616Z,3.4
2017-12-27T09:18:19.452Z,3.3
2017-12-27T09:20:19.201Z,3.4
2017-12-27T09:22:18.919Z,1.9
2017-12-27T09:24:18.696Z,6.6
2017-12-27T09:26:18.788Z,2.2
2017-12-27T09:28:19.563Z,2.6
2017-12-27T09:30:19.311Z,2.8
2017-12-27T09:32:19.386Z,5.5
2017-12-27T09:34:19.076Z,2
2017-12-27T09:36:19.331Z,3.1
2017-12-27T09:38:19.070Z,5.5
2017-12-27T09:40:19.267Z,3.1
2017-12-27T09:42:18.986Z,3.8
2017-12-27T09:44:18.732Z,5.3
2017-12-27T09:46:19.218Z,3.6
2017-12-27T09:48:18.970Z,4.3
2017-12-27T09:50:18.685Z,7.6
2017-12-27T09:52:19.419Z,3.4
2017-12-27T09:54:19.153Z,3.9
2017-12-27T09:56:18.777Z,2.6
2017-12-27T09:58:19.490Z,2.1
2017-12-27T10:00:19.243Z,1.7
2017-12-27T10:02:18.977Z,7.5
2017-12-27T10:04:18.716Z,4.7
2017-12-27T10:06:19.280Z,5.3
2017-12-27T10:08:19.020Z,2.9
2017-12-27T10:10:19.256Z,9.1
2017-12-27T10:12:18.964Z,2.8
2017-12-27T10:14:18.691Z,3.3
2017-12-27T10:16:19.138Z,2.7
2017-12-27T10:18:18.941Z,2.7
2017-12-27T10:20:18.678Z,3.9
2017-12-27T10:22:19.323Z,8.4
2017-12-27T10:24:19.056Z,7.8
2017-12-27T10:26:19.604Z,3.2
2017-12-27T10:28:19.349Z,2.5
2017-12-27T10:30:19.069Z,3.7
2017-12-27T10:32:18.839Z,4.4
2017-12-27T10:34:19.593Z,3.2
2017-12-27T10:36:19.215Z,1.6
2017-12-27T10:38:18.947Z,4.7
2017-12-27T10:40:19.187Z,4.3
2017-12-27T10:42:18.901Z,2.5
2017-12-27T10:44:19.636Z,4.8
2017-12-27T10:46:19.179Z,4.4
2017-12-27T10:48:18.931Z,4.4
2017-12-27T10:50:18.687Z,4
2017-12-27T10:52:19.456Z,5.9
2017-12-27T10:54:19.200Z,9.6
2017-12-27T10:56:18.969Z,5.1
2017-12-27T10:58:18.732Z,3.7
2017-12-27T11:00:19.447Z,6.2
2017-12-27T11:02:19.163Z,6.5
2017-12-27T11:04:18.912Z,3.4
2017-12-27T11:06:18.919Z,4
2017-12-27T11:08:19.637Z,5.6
2017-12-27T11:10:18.859Z,3.4
2017-12-27T11:12:19.613Z,9.7
2017-12-27T11:14:19.356Z,6.7
2017-12-27T11:16:19.458Z,3.4
2017-12-27T11:18:19.259Z,7.7
2017-12-27T11:20:19.035Z,4.7
2017-12-27T11:22:18.749Z,8.9
2017-12-27T11:24:19.463Z,4.4
2017-12-27T11:26:18.907Z,9.3
2017-12-27T11:28:19.617Z,3.7
2017-12-27T11:30:19.336Z,4.5
2017-12-27T11:32:19.098Z,5.4
2017-12-27T11:34:18.822Z,4.5
2017-12-27T11:36:19.449Z,10.7
2017-12-27T11:38:19.271Z,7.3
2017-12-27T11:40:19.479Z,5.5
2017-12-27T11:42:19.222Z,3
2017-12-27T11:44:18.961Z,4.5
2017-12-27T11:46:18.823Z,16.5
2017-12-27T11:48:19.586Z,4
2017-12-27T11:50:19.371Z,7.3
2017-12-27T11:52:19.122Z,8.7
2017-12-27T11:54:18.852Z,5
2017-12-27T11:56:18.889Z,11.3
2017-12-27T11:58:19.604Z,5.3
2017-12-27T12:00:19.367Z,6.5
2017-12-27T12:02:19.116Z,2.4
2017-12-27T12:04:18.828Z,5
2017-12-27T12:06:19.246Z,10
2017-12-27T12:08:18.992Z,4
2017-12-27T12:10:19.206Z,9.3
2017-12-27T12:12:18.957Z,11.3
2017-12-27T12:14:18.701Z,10
2017-12-27T12:16:19.623Z,4.6
2017-12-27T12:18:19.433Z,6.5
2017-12-27T12:20:19.173Z,6.8
2017-12-27T12:22:18.911Z,6.4
2017-12-27T12:24:19.691Z,5.4
2017-12-27T12:26:19.330Z,11.6
2017-12-27T12:28:19.073Z,6.3
2017-12-27T12:30:18.842Z,7.5
2017-12-27T12:32:19.592Z,3.2
2017-12-27T12:34:19.313Z,9.5
2017-12-27T12:36:18.897Z,3.8
2017-12-27T12:38:19.614Z,5.5
2017-12-27T12:40:18.825Z,6
2017-12-27T12:42:19.587Z,4.4
2017-12-27T12:44:19.334Z,3.9
2017-12-27T12:46:18.912Z,7.4
2017-12-27T12:48:19.689Z,7.3
2017-12-27T12:50:19.433Z,3.5
2017-12-27T12:52:19.169Z,5
2017-12-27T12:54:18.975Z,4.6
2017-12-27T12:56:19.372Z,5
2017-12-27T12:58:19.110Z,5.9
2017-12-27T13:00:18.878Z,6.7
2017-12-27T13:02:19.678Z,5.4
2017-12-27T13:04:19.405Z,4
2017-12-27T13:06:19.445Z,7.2
2017-12-27T13:08:19.182Z,4.7
2017-12-27T13:10:19.413Z,5.2
2017-12-27T13:12:19.185Z,8.4
2017-12-27T13:14:18.912Z,6.2
2017-12-27T13:16:18.875Z,5.6
2017-12-27T13:18:18.682Z,6
2017-12-27T13:20:19.412Z,9.5
2017-12-27T13:22:19.136Z,5.5
2017-12-27T13:24:18.916Z,9
2017-12-27T13:26:18.903Z,8
2017-12-27T13:28:19.658Z,5.5
2017-12-27T13:30:19.390Z,3.4
2017-12-27T13:32:19.092Z,11.7
2017-12-27T13:34:18.817Z,5.7
2017-12-27T13:36:18.877Z,4.8
2017-12-27T13:38:19.619Z,3.5
2017-12-27T13:40:18.843Z,3.5
2017-12-27T13:42:19.642Z,5
2017-12-27T13:44:19.418Z,7
2017-12-27T13:46:18.941Z,5.7
2017-12-27T13:48:18.707Z,4.1
2017-12-27T13:50:19.501Z,6.5
2017-12-27T13:52:19.228Z,5.1
2017-12-27T13:54:18.992Z,2.1
2017-12-27T13:56:19.017Z,6.2
2017-12-27T13:58:18.761Z,4.9
2017-12-27T14:00:19.469Z,3.4
2017-12-27T14:02:19.221Z,4.8
2017-12-27T14:04:18.955Z,5.4
2017-12-27T14:06:19.350Z,6.2
2017-12-27T14:08:19.112Z,3.9
2017-12-27T14:10:19.285Z,2.9
2017-12-27T14:12:19.013Z,9.9
2017-12-27T14:14:18.733Z,5.1
2017-12-27T14:16:18.912Z,3.6
2017-12-27T14:18:18.727Z,3.8
2017-12-27T14:20:19.464Z,3.9
2017-12-27T14:22:19.226Z,10.2
2017-12-27T14:24:19.029Z,11.2
2017-12-27T14:26:19.667Z,4.2
2017-12-27T14:28:19.433Z,6.2
2017-12-27T14:30:19.255Z,7.6
2017-12-27T14:32:18.998Z,6.2
2017-12-27T14:34:18.742Z,8.6
2017-12-27T14:36:19.421Z,5.5
2017-12-27T14:38:19.123Z,3.4
2017-12-27T14:40:19.373Z,8.2
2017-12-27T14:42:19.443Z,2.7
2017-12-27T14:44:19.159Z,5.9
2017-12-27T14:46:18.786Z,6.3
2017-12-27T14:48:19.524Z,4.2
2017-12-27T14:50:19.293Z,7.5
2017-12-27T14:52:18.835Z,6.7
2017-12-27T14:54:19.559Z,4.7
2017-12-27T14:56:19.604Z,4.9
2017-12-27T14:58:19.328Z,6
2017-12-27T15:00:19.078Z,4.9
2017-12-27T15:02:18.850Z,4.1
2017-12-27T15:04:19.584Z,3.2
2017-12-27T15:06:19.222Z,5.5
2017-12-27T15:08:18.977Z,4.3
2017-12-27T15:10:19.173Z,6.3
2017-12-27T15:12:18.893Z,5.1
2017-12-27T15:14:19.643Z,4.8
2017-12-27T15:16:19.163Z,3.7
2017-12-27T15:18:18.991Z,5.7
2017-12-27T15:20:18.725Z,4.4
2017-12-27T15:22:19.463Z,5.1
2017-12-27T15:24:19.215Z,4.7
2017-12-27T15:26:19.267Z,8.5
2017-12-27T15:28:18.984Z,5.8
2017-12-27T15:30:18.736Z,6.7
2017-12-27T15:32:19.281Z,4.6
2017-12-27T15:34:19.056Z,5
2017-12-27T15:36:19.182Z,3.3
2017-12-27T15:38:18.924Z,3.7
2017-12-27T15:40:19.123Z,6.2
2017-12-27T15:42:19.192Z,3.4
2017-12-27T15:44:18.921Z,4.2
2017-12-27T15:46:19.017Z,3.9
2017-12-27T15:48:18.806Z,5.2
2017-12-27T15:50:19.555Z,6.2
2017-12-27T15:52:19.276Z,7.6
2017-12-27T15:54:19.039Z,7.4
2017-12-27T15:56:19.090Z,4.2
2017-12-27T15:58:18.818Z,6.9
2017-12-27T16:00:19.546Z,10.7
2017-12-27T16:02:19.269Z,6.2
2017-12-27T16:04:18.990Z,8.1
2017-12-27T16:06:18.714Z,5.7
2017-12-27T16:08:19.462Z,3.6
2017-12-27T16:10:19.668Z,7.4
2017-12-27T16:12:19.406Z,6.3
2017-12-27T16:14:19.165Z,6.2
2017-12-27T16:16:19.579Z,8.8
2017-12-27T16:18:19.380Z,7.2
2017-12-27T16:20:19.154Z,5.9
2017-12-27T16:22:18.911Z,7.1
2017-12-27T16:24:19.636Z,9.5
2017-12-27T16:26:19.628Z,8.2
2017-12-27T16:28:19.374Z,6.7
2017-12-27T16:30:19.121Z,7
2017-12-27T16:32:18.830Z,8
2017-12-27T16:34:19.587Z,6.6
2017-12-27T16:36:18.920Z,9.8
2017-12-27T16:38:19.637Z,6.3
2017-12-27T16:40:18.889Z,6.4
2017-12-27T16:42:19.628Z,6.7
2017-12-27T16:44:19.346Z,7
2017-12-27T16:46:19.029Z,10.5
2017-12-27T16:48:18.762Z,5.9
2017-12-27T16:50:19.496Z,5.5
2017-12-27T16:52:19.092Z,7.7
2017-12-27T16:54:18.888Z,5.9
2017-12-27T16:56:19.389Z,8
2017-12-27T16:58:19.082Z,8.2
2017-12-27T17:00:18.779Z,9.3
2017-12-27T17:02:19.521Z,7.9
2017-12-27T17:04:19.247Z,4.7
2017-12-27T17:06:18.734Z,9.5
2017-12-27T17:08:19.473Z,11.3
2017-12-27T17:10:19.691Z,11.3
2017-12-27T17:12:19.430Z,7.5
2017-12-27T17:14:19.196Z,12.6
2017-12-27T17:16:19.194Z,5.8
2017-12-27T17:18:19.017Z,6.6
2017-12-27T17:20:18.763Z,10.4
2017-12-27T17:22:19.345Z,7
2017-12-27T17:24:19.085Z,7.6
2017-12-27T17:26:19.274Z,7.4
2017-12-27T17:28:18.999Z,8.9
2017-12-27T17:30:18.734Z,13.9
2017-12-27T17:32:19.401Z,12.2
2017-12-27T17:34:19.120Z,10.1
2017-12-27T17:36:19.208Z,8.4
2017-12-27T17:38:18.977Z,20.9
2017-12-27T17:40:19.197Z,11.8
2017-12-27T17:42:18.944Z,7
2017-12-27T17:44:18.662Z,7
2017-12-27T17:46:18.684Z,5.9
2017-12-27T17:48:19.455Z,7.9
2017-12-27T17:50:19.203Z,12.2
2017-12-27T17:52:18.927Z,8.4
2017-12-27T17:54:19.672Z,11.2
2017-12-27T17:56:19.139Z,7.6
2017-12-27T17:58:18.861Z,9.3
2017-12-27T18:00:19.622Z,12.8
2017-12-27T18:02:18.716Z,9.9
2017-12-27T18:04:19.427Z,9
2017-12-27T18:06:18.708Z,8.8
2017-12-27T18:08:19.447Z,15.8
2017-12-27T18:10:18.727Z,8.6
2017-12-27T18:12:19.389Z,10.5
2017-12-27T18:14:19.117Z,10.3
2017-12-27T18:16:19.468Z,8.8
2017-12-27T18:18:19.297Z,9.7
2017-12-27T18:20:19.039Z,8.6
2017-12-27T18:22:18.773Z,12.8
2017-12-27T18:24:19.514Z,14.9
2017-12-27T18:26:19.005Z,7.8
2017-12-27T18:28:18.718Z,10.3
2017-12-27T18:30:19.448Z,8.5
2017-12-27T18:32:19.185Z,8.7
2017-12-27T18:34:18.947Z,11.4
2017-12-27T18:36:19.154Z,7
2017-12-27T18:38:18.942Z,8.3
2017-12-27T18:40:19.176Z,7
2017-12-27T18:42:18.907Z,13.1
2017-12-27T18:44:19.639Z,7.7
2017-12-27T18:46:19.616Z,5.7
2017-12-27T18:48:19.338Z,8.1
2017-12-27T18:50:19.165Z,8.8
2017-12-27T18:52:18.907Z,9.4
2017-12-27T18:54:19.634Z,9
2017-12-27T18:56:19.172Z,9.5
2017-12-27T18:58:18.923Z,7.6
2017-12-27T19:00:19.632Z,8.5
2017-12-27T19:02:19.353Z,11.1
2017-12-27T19:04:19.126Z,11
2017-12-27T19:06:19.163Z,10.3
2017-12-27T19:08:18.871Z,13.9
2017-12-27T19:10:19.110Z,6.6
2017-12-27T19:12:19.630Z,9
2017-12-27T19:14:19.369Z,12.9
2017-12-27T19:16:18.883Z,7.4
2017-12-27T19:18:18.745Z,9.6
2017-12-27T19:20:19.484Z,8.6
2017-12-27T19:22:19.276Z,9.7
2017-12-27T19:24:18.994Z,8.4
2017-12-27T19:26:19.492Z,9.8
2017-12-27T19:28:19.274Z,10.7
2017-12-27T19:30:19.170Z,8.2
2017-12-27T19:32:18.900Z,12.3
2017-12-27T19:34:19.671Z,8.9
2017-12-27T19:36:18.683Z,12.8
2017-12-27T19:38:19.384Z,12.2
2017-12-27T19:40:19.588Z,11.2
2017-12-27T19:42:19.290Z,9.3
2017-12-27T19:44:19.014Z,7.6
2017-12-27T19:46:19.224Z,11.2
2017-12-27T19:48:18.989Z,9.5
2017-12-27T19:50:18.742Z,8.5
2017-12-27T19:52:18.801Z,12.6
2017-12-27T19:54:19.546Z,11
2017-12-27T19:56:18.999Z,12.4
2017-12-27T19:58:18.728Z,12.1
2017-12-27T20:00:19.456Z,11.6
2017-12-27T20:02:19.215Z,8.3
2017-12-27T20:04:18.967Z,11.8
2017-12-27T20:06:19.607Z,11.4
2017-12-27T20:08:19.355Z,8.1
2017-12-27T20:10:19.537Z,10.2
2017-12-27T20:12:19.263Z,11.9
2017-12-27T20:14:19.022Z,14.4
2017-12-27T20:16:18.717Z,12.5
2017-12-27T20:18:19.535Z,8.4
2017-12-27T20:20:19.264Z,10.8
2017-12-27T20:22:19.008Z,8.9
2017-12-27T20:24:18.731Z,9.8
2017-12-27T20:26:18.752Z,11.9
2017-12-27T20:28:19.481Z,10.4
2017-12-27T20:30:19.243Z,14.1
2017-12-27T20:32:18.826Z,11.1
2017-12-27T20:34:19.569Z,13.4
2017-12-27T20:36:18.831Z,9.7
2017-12-27T20:38:19.568Z,11.2
2017-12-27T20:40:18.765Z,10.3
2017-12-27T20:42:19.507Z,9.4
2017-12-27T20:44:19.239Z,6.3
2017-12-27T20:46:19.244Z,7.8
2017-12-27T20:48:18.993Z,13.3
2017-12-27T20:50:18.709Z,7.9
2017-12-27T20:52:19.445Z,12.8
2017-12-27T20:54:19.164Z,10.4
2017-12-27T20:56:19.345Z,11.3
2017-12-27T20:58:19.087Z,9.3
2017-12-27T21:00:18.817Z,10.1
2017-12-27T21:02:19.537Z,11.2
2017-12-27T21:04:19.261Z,13.6
2017-12-27T21:06:18.986Z,9.8
2017-12-27T21:08:18.734Z,8.8
2017-12-27T21:10:19.099Z,8.2
2017-12-27T21:12:18.821Z,8
2017-12-27T21:14:19.553Z,8.4
2017-12-27T21:16:19.629Z,10.8
2017-12-27T21:18:19.464Z,10.6
2017-12-27T21:20:19.186Z,8.8
2017-12-27T21:22:18.953Z,9.5
2017-12-27T21:24:18.683Z,9.3
2017-12-27T21:26:19.229Z,10.3
2017-12-27T21:28:18.973Z,11
2017-12-27T21:30:18.775Z,9.2
2017-12-27T21:32:19.515Z,9.6
2017-12-27T21:34:19.225Z,6.7
2017-12-27T21:36:19.647Z,9.6
2017-12-27T21:38:19.374Z,9.5
2017-12-27T21:40:19.608Z,11.4
2017-12-27T21:42:19.342Z,8
2017-12-27T21:44:19.037Z,9.7
2017-12-27T21:46:19.473Z,10.2
2017-12-27T21:48:19.244Z,11.1
2017-12-27T21:50:19.016Z,10.9
2017-12-27T21:52:18.722Z,14.1
2017-12-27T21:54:19.495Z,13.6
2017-12-27T21:56:18.962Z,12.6
2017-12-27T21:58:18.682Z,9.7
2017-12-27T22:00:19.410Z,13.6
2017-12-27T22:02:19.075Z,8.7
2017-12-27T22:04:18.800Z,13
2017-12-27T22:06:18.857Z,13
2017-12-27T22:08:19.591Z,11.8
2017-12-27T22:10:18.827Z,11.6
2017-12-27T22:12:18.822Z,14
2017-12-27T22:14:19.530Z,11.1
2017-12-27T22:16:18.892Z,8.1
2017-12-27T22:18:18.676Z,12.6
2017-12-27T22:20:19.419Z,9.3
2017-12-27T22:22:19.146Z,13
2017-12-27T22:24:18.857Z,12
2017-12-27T22:26:19.406Z,10
2017-12-27T22:28:19.115Z,13.6
2017-12-27T22:30:18.822Z,11.8
2017-12-27T22:32:18.871Z,12.2
2017-12-27T22:34:19.591Z,9.9
2017-12-27T22:36:19.585Z,7.7
2017-12-27T22:38:19.339Z,8.9
2017-12-27T22:40:19.520Z,13.1
2017-12-27T22:42:19.270Z,11.4
2017-12-27T22:44:19.019Z,10.2
2017-12-27T22:46:19.392Z,12.9
2017-12-27T22:48:19.124Z,9.6
2017-12-27T22:50:18.857Z,10.7
2017-12-27T22:52:19.590Z,11.7
2017-12-27T22:54:19.319Z,10.1
2017-12-27T22:56:19.599Z,8.9
2017-12-27T22:58:19.366Z,12.5
2017-12-27T23:00:19.111Z,11.4
2017-12-27T23:02:18.835Z,9.5
2017-12-27T23:04:19.587Z,11.9
2017-12-27T23:06:18.828Z,15.5
2017-12-27T23:08:19.564Z,11.1
2017-12-27T23:10:18.906Z,11
2017-12-27T23:12:19.666Z,11.2
2017-12-27T23:14:19.407Z,13.5
2017-12-27T23:16:18.958Z,11.5
2017-12-27T23:18:18.799Z,8.4
2017-12-27T23:20:19.517Z,9.6
2017-12-27T23:22:18.716Z,9.2
2017-12-27T23:24:19.461Z,9.6
2017-12-27T23:26:19.711Z,10.2
2017-12-27T23:28:19.421Z,7.9
2017-12-27T23:30:19.169Z,12.9
2017-12-27T23:32:18.874Z,11
2017-12-27T23:34:19.582Z,14.8
2017-12-27T23:36:19.632Z,9.7
2017-12-27T23:38:19.341Z,14.7
2017-12-27T23:40:19.555Z,10.4
2017-12-27T23:42:19.143Z,13.4
2017-12-27T23:44:18.893Z,9.8
2017-12-27T23:46:18.931Z,13
2017-12-27T23:48:18.672Z,14.6
2017-12-27T23:50:19.423Z,10.5
2017-12-27T23:52:19.155Z,8.8
2017-12-27T23:54:18.890Z,13.4
2017-12-27T23:56:19.051Z,10.6
2017-12-27T23:58:18.814Z,9.5
